sensor_id;sensor_type;location;lat;lon;timestamp;P1;durP1;ratioP1;P2;durP2;ratioP2
51981;SDS011;37998;53.416;6.730;2024-03-08T00:00:18;50.22;;;33.65;;
51981;SDS011;37998;53.416;6.730;2024-03-08T00:02:45;51.22;;;32.95;;
51981;SDS011;37998;53.416;6.730;2024-03-08T00:05:11;46.72;;;31.83;;
51981;SDS011;37998;53.416;6.730;2024-03-08T00:07:39;48.67;;;32.47;;
51981;SDS011;37998;53.416;6.730;2024-03-08T00:10:06;50.40;;;32.92;;
51981;SDS011;37998;53.416;6.730;2024-03-08T00:12:45;48.72;;;32.20;;
51981;SDS011;37998;53.416;6.730;2024-03-08T00:15:12;49.95;;;32.40;;
51981;SDS011;37998;53.416;6.730;2024-03-08T00:17:39;46.88;;;30.40;;
51981;SDS011;37998;53.416;6.730;2024-03-08T00:20:06;48.70;;;31.95;;
51981;SDS011;37998;53.416;6.730;2024-03-08T00:22:36;45.47;;;30.88;;
51981;SDS011;37998;53.416;6.730;2024-03-08T00:25:03;52.22;;;30.90;;
51981;SDS011;37998;53.416;6.730;2024-03-08T00:27:30;47.55;;;31.45;;
51981;SDS011;37998;53.416;6.730;2024-03-08T00:29:57;49.05;;;31.35;;
51981;SDS011;37998;53.416;6.730;2024-03-08T00:32:23;46.15;;;30.25;;
51981;SDS011;37998;53.416;6.730;2024-03-08T00:34:50;47.75;;;31.23;;
51981;SDS011;37998;53.416;6.730;2024-03-08T00:37:19;46.63;;;30.55;;
51981;SDS011;37998;53.416;6.730;2024-03-08T00:39:50;49.00;;;30.63;;
51981;SDS011;37998;53.416;6.730;2024-03-08T00:42:17;47.20;;;29.25;;
51981;SDS011;37998;53.416;6.730;2024-03-08T00:44:43;43.42;;;29.98;;
51981;SDS011;37998;53.416;6.730;2024-03-08T00:47:10;49.30;;;30.02;;
51981;SDS011;37998;53.416;6.730;2024-03-08T00:49:36;44.78;;;30.50;;
51981;SDS011;37998;53.416;6.730;2024-03-08T00:52:03;46.03;;;30.73;;
51981;SDS011;37998;53.416;6.730;2024-03-08T00:54:32;46.05;;;31.48;;
51981;SDS011;37998;53.416;6.730;2024-03-08T00:56:58;45.63;;;29.27;;
51981;SDS011;37998;53.416;6.730;2024-03-08T00:59:28;45.83;;;30.05;;
51981;SDS011;37998;53.416;6.730;2024-03-08T01:01:54;41.35;;;29.23;;
51981;SDS011;37998;53.416;6.730;2024-03-08T01:04:20;42.08;;;28.85;;
51981;SDS011;37998;53.416;6.730;2024-03-08T01:06:48;44.28;;;29.52;;
51981;SDS011;37998;53.416;6.730;2024-03-08T01:09:14;41.28;;;27.13;;
51981;SDS011;37998;53.416;6.730;2024-03-08T01:11:42;44.50;;;27.85;;
51981;SDS011;37998;53.416;6.730;2024-03-08T01:14:09;41.72;;;27.90;;
51981;SDS011;37998;53.416;6.730;2024-03-08T01:16:35;41.88;;;27.60;;
51981;SDS011;37998;53.416;6.730;2024-03-08T01:19:01;41.03;;;27.90;;
51981;SDS011;37998;53.416;6.730;2024-03-08T01:21:28;38.85;;;27.42;;
51981;SDS011;37998;53.416;6.730;2024-03-08T01:23:54;39.72;;;27.98;;
51981;SDS011;37998;53.416;6.730;2024-03-08T01:26:20;40.95;;;27.48;;
51981;SDS011;37998;53.416;6.730;2024-03-08T01:28:46;44.25;;;27.50;;
51981;SDS011;37998;53.416;6.730;2024-03-08T01:31:13;39.38;;;26.90;;
51981;SDS011;37998;53.416;6.730;2024-03-08T01:33:39;40.45;;;25.23;;
51981;SDS011;37998;53.416;6.730;2024-03-08T01:36:05;41.20;;;27.88;;
51981;SDS011;37998;53.416;6.730;2024-03-08T01:38:31;39.28;;;26.67;;
51981;SDS011;37998;53.416;6.730;2024-03-08T01:40:57;40.38;;;26.75;;
51981;SDS011;37998;53.416;6.730;2024-03-08T01:43:27;36.90;;;25.35;;
51981;SDS011;37998;53.416;6.730;2024-03-08T01:45:57;36.58;;;25.50;;
51981;SDS011;37998;53.416;6.730;2024-03-08T01:48:25;36.30;;;25.30;;
51981;SDS011;37998;53.416;6.730;2024-03-08T01:50:52;38.63;;;25.85;;
51981;SDS011;37998;53.416;6.730;2024-03-08T01:53:20;40.97;;;24.80;;
51981;SDS011;37998;53.416;6.730;2024-03-08T01:55:49;36.92;;;24.88;;
51981;SDS011;37998;53.416;6.730;2024-03-08T01:58:17;37.38;;;24.88;;
51981;SDS011;37998;53.416;6.730;2024-03-08T02:00:46;42.28;;;25.58;;
51981;SDS011;37998;53.416;6.730;2024-03-08T02:03:15;36.20;;;25.08;;
51981;SDS011;37998;53.416;6.730;2024-03-08T02:05:41;41.22;;;25.63;;
51981;SDS011;37998;53.416;6.730;2024-03-08T02:08:07;39.03;;;26.13;;
51981;SDS011;37998;53.416;6.730;2024-03-08T02:10:38;31.65;;;24.00;;
51981;SDS011;37998;53.416;6.730;2024-03-08T02:13:04;37.10;;;24.00;;
51981;SDS011;37998;53.416;6.730;2024-03-08T02:18:15;33.92;;;23.75;;
51981;SDS011;37998;53.416;6.730;2024-03-08T02:20:42;38.40;;;25.23;;
51981;SDS011;37998;53.416;6.730;2024-03-08T02:23:08;34.85;;;24.63;;
51981;SDS011;37998;53.416;6.730;2024-03-08T02:25:35;34.95;;;24.98;;
51981;SDS011;37998;53.416;6.730;2024-03-08T02:28:01;40.15;;;23.35;;
51981;SDS011;37998;53.416;6.730;2024-03-08T02:30:27;33.88;;;24.45;;
51981;SDS011;37998;53.416;6.730;2024-03-08T02:32:55;39.22;;;25.92;;
51981;SDS011;37998;53.416;6.730;2024-03-08T02:35:21;32.15;;;23.52;;
51981;SDS011;37998;53.416;6.730;2024-03-08T02:37:47;36.10;;;22.98;;
51981;SDS011;37998;53.416;6.730;2024-03-08T02:40:13;37.85;;;24.50;;
51981;SDS011;37998;53.416;6.730;2024-03-08T02:42:39;34.80;;;23.38;;
51981;SDS011;37998;53.416;6.730;2024-03-08T02:45:05;38.22;;;24.65;;
51981;SDS011;37998;53.416;6.730;2024-03-08T02:47:31;38.47;;;22.98;;
51981;SDS011;37998;53.416;6.730;2024-03-08T02:49:57;33.38;;;23.10;;
51981;SDS011;37998;53.416;6.730;2024-03-08T02:52:23;32.70;;;22.67;;
51981;SDS011;37998;53.416;6.730;2024-03-08T02:54:50;33.65;;;23.45;;
51981;SDS011;37998;53.416;6.730;2024-03-08T02:57:15;37.70;;;23.20;;
51981;SDS011;37998;53.416;6.730;2024-03-08T02:59:41;38.08;;;23.98;;
51981;SDS011;37998;53.416;6.730;2024-03-08T03:02:07;35.05;;;23.10;;
51981;SDS011;37998;53.416;6.730;2024-03-08T03:04:35;33.15;;;22.88;;
51981;SDS011;37998;53.416;6.730;2024-03-08T03:07:01;33.95;;;22.27;;
51981;SDS011;37998;53.416;6.730;2024-03-08T03:09:29;33.92;;;23.52;;
51981;SDS011;37998;53.416;6.730;2024-03-08T03:11:58;33.75;;;22.33;;
51981;SDS011;37998;53.416;6.730;2024-03-08T03:14:24;32.65;;;21.92;;
51981;SDS011;37998;53.416;6.730;2024-03-08T03:16:52;36.38;;;22.33;;
51981;SDS011;37998;53.416;6.730;2024-03-08T03:19:19;34.60;;;23.23;;
51981;SDS011;37998;53.416;6.730;2024-03-08T03:21:45;35.05;;;22.98;;
51981;SDS011;37998;53.416;6.730;2024-03-08T03:24:12;33.08;;;22.13;;
51981;SDS011;37998;53.416;6.730;2024-03-08T03:26:41;31.27;;;22.40;;
51981;SDS011;37998;53.416;6.730;2024-03-08T03:29:09;34.58;;;22.73;;
51981;SDS011;37998;53.416;6.730;2024-03-08T03:31:36;32.15;;;22.52;;
51981;SDS011;37998;53.416;6.730;2024-03-08T03:34:02;33.72;;;22.98;;
51981;SDS011;37998;53.416;6.730;2024-03-08T03:36:29;35.25;;;22.60;;
51981;SDS011;37998;53.416;6.730;2024-03-08T03:38:55;33.45;;;23.13;;
51981;SDS011;37998;53.416;6.730;2024-03-08T03:41:41;32.88;;;22.10;;
51981;SDS011;37998;53.416;6.730;2024-03-08T03:44:09;31.33;;;22.17;;
51981;SDS011;37998;53.416;6.730;2024-03-08T03:46:35;32.03;;;22.50;;
51981;SDS011;37998;53.416;6.730;2024-03-08T03:49:01;30.63;;;22.00;;
51981;SDS011;37998;53.416;6.730;2024-03-08T03:51:29;31.95;;;22.55;;
51981;SDS011;37998;53.416;6.730;2024-03-08T03:53:55;32.42;;;22.17;;
51981;SDS011;37998;53.416;6.730;2024-03-08T03:56:25;35.30;;;22.13;;
51981;SDS011;37998;53.416;6.730;2024-03-08T03:58:52;33.03;;;23.85;;
51981;SDS011;37998;53.416;6.730;2024-03-08T04:01:18;36.08;;;23.05;;
51981;SDS011;37998;53.416;6.730;2024-03-08T04:03:44;32.33;;;22.35;;
51981;SDS011;37998;53.416;6.730;2024-03-08T04:06:10;31.83;;;22.35;;
51981;SDS011;37998;53.416;6.730;2024-03-08T04:08:36;31.92;;;23.50;;
51981;SDS011;37998;53.416;6.730;2024-03-08T04:11:02;33.38;;;23.08;;
51981;SDS011;37998;53.416;6.730;2024-03-08T04:13:28;35.10;;;23.98;;
51981;SDS011;37998;53.416;6.730;2024-03-08T04:15:54;31.00;;;21.98;;
51981;SDS011;37998;53.416;6.730;2024-03-08T04:18:20;32.53;;;22.23;;
51981;SDS011;37998;53.416;6.730;2024-03-08T04:20:46;34.15;;;23.25;;
51981;SDS011;37998;53.416;6.730;2024-03-08T04:23:13;33.72;;;22.05;;
51981;SDS011;37998;53.416;6.730;2024-03-08T04:25:38;32.17;;;22.25;;
51981;SDS011;37998;53.416;6.730;2024-03-08T04:28:04;30.60;;;21.80;;
51981;SDS011;37998;53.416;6.730;2024-03-08T04:30:30;33.38;;;22.10;;
51981;SDS011;37998;53.416;6.730;2024-03-08T04:32:56;35.03;;;23.13;;
51981;SDS011;37998;53.416;6.730;2024-03-08T04:35:22;34.75;;;23.17;;
51981;SDS011;37998;53.416;6.730;2024-03-08T04:37:48;32.85;;;21.95;;
51981;SDS011;37998;53.416;6.730;2024-03-08T04:40:14;35.78;;;22.33;;
51981;SDS011;37998;53.416;6.730;2024-03-08T04:42:40;34.08;;;21.08;;
51981;SDS011;37998;53.416;6.730;2024-03-08T04:45:08;34.70;;;22.10;;
51981;SDS011;37998;53.416;6.730;2024-03-08T04:47:36;29.70;;;21.40;;
51981;SDS011;37998;53.416;6.730;2024-03-08T04:50:02;35.40;;;22.75;;
51981;SDS011;37998;53.416;6.730;2024-03-08T04:52:29;33.15;;;22.73;;
51981;SDS011;37998;53.416;6.730;2024-03-08T04:54:55;35.13;;;23.77;;
51981;SDS011;37998;53.416;6.730;2024-03-08T04:57:21;34.33;;;23.00;;
51981;SDS011;37998;53.416;6.730;2024-03-08T04:59:47;31.88;;;21.90;;
51981;SDS011;37998;53.416;6.730;2024-03-08T05:02:14;32.58;;;22.27;;
51981;SDS011;37998;53.416;6.730;2024-03-08T05:04:40;32.97;;;22.45;;
51981;SDS011;37998;53.416;6.730;2024-03-08T05:07:07;33.38;;;22.17;;
51981;SDS011;37998;53.416;6.730;2024-03-08T05:09:33;33.65;;;21.48;;
51981;SDS011;37998;53.416;6.730;2024-03-08T05:11:59;30.60;;;20.95;;
51981;SDS011;37998;53.416;6.730;2024-03-08T05:14:25;30.48;;;21.92;;
51981;SDS011;37998;53.416;6.730;2024-03-08T05:16:51;36.00;;;21.38;;
51981;SDS011;37998;53.416;6.730;2024-03-08T05:19:17;34.97;;;21.55;;
51981;SDS011;37998;53.416;6.730;2024-03-08T05:21:44;31.73;;;22.95;;
51981;SDS011;37998;53.416;6.730;2024-03-08T05:24:10;31.38;;;21.25;;
51981;SDS011;37998;53.416;6.730;2024-03-08T05:26:36;33.45;;;21.60;;
51981;SDS011;37998;53.416;6.730;2024-03-08T05:29:05;32.65;;;21.75;;
51981;SDS011;37998;53.416;6.730;2024-03-08T05:31:38;33.72;;;21.45;;
51981;SDS011;37998;53.416;6.730;2024-03-08T05:34:20;33.10;;;23.10;;
51981;SDS011;37998;53.416;6.730;2024-03-08T05:36:47;36.50;;;22.02;;
51981;SDS011;37998;53.416;6.730;2024-03-08T05:39:16;31.55;;;22.05;;
51981;SDS011;37998;53.416;6.730;2024-03-08T05:41:42;34.58;;;21.38;;
51981;SDS011;37998;53.416;6.730;2024-03-08T05:44:10;35.78;;;22.02;;
51981;SDS011;37998;53.416;6.730;2024-03-08T05:46:36;31.25;;;22.20;;
51981;SDS011;37998;53.416;6.730;2024-03-08T05:49:03;35.22;;;22.52;;
51981;SDS011;37998;53.416;6.730;2024-03-08T05:51:34;35.22;;;23.60;;
51981;SDS011;37998;53.416;6.730;2024-03-08T05:54:01;35.80;;;22.75;;
51981;SDS011;37998;53.416;6.730;2024-03-08T05:56:37;34.15;;;22.70;;
51981;SDS011;37998;53.416;6.730;2024-03-08T05:59:03;35.35;;;22.05;;
51981;SDS011;37998;53.416;6.730;2024-03-08T06:01:29;35.78;;;22.80;;
51981;SDS011;37998;53.416;6.730;2024-03-08T06:03:56;35.58;;;23.52;;
51981;SDS011;37998;53.416;6.730;2024-03-08T06:06:23;35.75;;;23.05;;
51981;SDS011;37998;53.416;6.730;2024-03-08T06:08:49;36.05;;;23.58;;
51981;SDS011;37998;53.416;6.730;2024-03-08T06:11:16;33.08;;;22.05;;
51981;SDS011;37998;53.416;6.730;2024-03-08T06:13:44;33.65;;;22.40;;
51981;SDS011;37998;53.416;6.730;2024-03-08T06:16:10;36.08;;;23.42;;
51981;SDS011;37998;53.416;6.730;2024-03-08T06:18:37;35.13;;;22.83;;
51981;SDS011;37998;53.416;6.730;2024-03-08T06:21:03;34.03;;;23.42;;
51981;SDS011;37998;53.416;6.730;2024-03-08T06:23:33;33.78;;;24.17;;
51981;SDS011;37998;53.416;6.730;2024-03-08T06:26:09;34.60;;;23.90;;
51981;SDS011;37998;53.416;6.730;2024-03-08T06:28:35;33.15;;;22.23;;
51981;SDS011;37998;53.416;6.730;2024-03-08T06:31:01;35.28;;;24.15;;
51981;SDS011;37998;53.416;6.730;2024-03-08T06:33:28;33.10;;;23.02;;
51981;SDS011;37998;53.416;6.730;2024-03-08T06:35:54;34.63;;;23.15;;
51981;SDS011;37998;53.416;6.730;2024-03-08T06:38:23;36.03;;;23.38;;
51981;SDS011;37998;53.416;6.730;2024-03-08T06:40:50;40.70;;;23.45;;
51981;SDS011;37998;53.416;6.730;2024-03-08T06:43:17;35.30;;;23.17;;
51981;SDS011;37998;53.416;6.730;2024-03-08T06:45:44;33.97;;;22.65;;
51981;SDS011;37998;53.416;6.730;2024-03-08T06:48:18;33.58;;;22.77;;
51981;SDS011;37998;53.416;6.730;2024-03-08T06:50:44;36.03;;;22.10;;
51981;SDS011;37998;53.416;6.730;2024-03-08T06:53:11;39.42;;;24.77;;
51981;SDS011;37998;53.416;6.730;2024-03-08T06:55:37;35.42;;;23.02;;
51981;SDS011;37998;53.416;6.730;2024-03-08T06:58:04;33.85;;;23.30;;
51981;SDS011;37998;53.416;6.730;2024-03-08T07:00:30;33.40;;;22.88;;
51981;SDS011;37998;53.416;6.730;2024-03-08T07:02:56;37.33;;;24.08;;
51981;SDS011;37998;53.416;6.730;2024-03-08T07:05:29;38.10;;;25.20;;
51981;SDS011;37998;53.416;6.730;2024-03-08T07:07:55;38.78;;;24.10;;
51981;SDS011;37998;53.416;6.730;2024-03-08T07:10:22;34.50;;;23.65;;
51981;SDS011;37998;53.416;6.730;2024-03-08T07:12:51;33.13;;;23.33;;
51981;SDS011;37998;53.416;6.730;2024-03-08T07:15:18;34.70;;;23.40;;
51981;SDS011;37998;53.416;6.730;2024-03-08T07:17:48;35.20;;;24.98;;
51981;SDS011;37998;53.416;6.730;2024-03-08T07:20:17;34.83;;;23.75;;
51981;SDS011;37998;53.416;6.730;2024-03-08T07:22:47;37.17;;;24.10;;
51981;SDS011;37998;53.416;6.730;2024-03-08T07:25:16;36.97;;;24.25;;
51981;SDS011;37998;53.416;6.730;2024-03-08T07:27:52;34.55;;;24.40;;
51981;SDS011;37998;53.416;6.730;2024-03-08T07:30:20;36.45;;;23.80;;
51981;SDS011;37998;53.416;6.730;2024-03-08T07:33:06;37.92;;;23.23;;
51981;SDS011;37998;53.416;6.730;2024-03-08T07:35:32;36.53;;;23.90;;
51981;SDS011;37998;53.416;6.730;2024-03-08T07:38:03;37.00;;;25.45;;
51981;SDS011;37998;53.416;6.730;2024-03-08T07:40:31;33.85;;;24.10;;
51981;SDS011;37998;53.416;6.730;2024-03-08T07:43:00;41.83;;;24.75;;
51981;SDS011;37998;53.416;6.730;2024-03-08T07:45:26;39.70;;;24.77;;
51981;SDS011;37998;53.416;6.730;2024-03-08T07:47:52;40.30;;;25.42;;
51981;SDS011;37998;53.416;6.730;2024-03-08T07:50:18;32.47;;;22.70;;
51981;SDS011;37998;53.416;6.730;2024-03-08T07:52:44;38.05;;;22.98;;
51981;SDS011;37998;53.416;6.730;2024-03-08T07:55:10;32.53;;;22.80;;
51981;SDS011;37998;53.416;6.730;2024-03-08T07:57:36;30.98;;;21.65;;
51981;SDS011;37998;53.416;6.730;2024-03-08T08:00:05;35.40;;;23.42;;
51981;SDS011;37998;53.416;6.730;2024-03-08T08:02:34;35.83;;;22.70;;
51981;SDS011;37998;53.416;6.730;2024-03-08T08:05:01;34.45;;;23.65;;
51981;SDS011;37998;53.416;6.730;2024-03-08T08:07:28;38.80;;;24.17;;
51981;SDS011;37998;53.416;6.730;2024-03-08T08:09:54;36.60;;;23.73;;
51981;SDS011;37998;53.416;6.730;2024-03-08T08:12:20;33.97;;;23.20;;
51981;SDS011;37998;53.416;6.730;2024-03-08T08:14:46;35.80;;;24.25;;
51981;SDS011;37998;53.416;6.730;2024-03-08T08:17:12;35.08;;;23.75;;
51981;SDS011;37998;53.416;6.730;2024-03-08T08:19:40;36.38;;;24.85;;
51981;SDS011;37998;53.416;6.730;2024-03-08T08:22:06;35.92;;;25.20;;
51981;SDS011;37998;53.416;6.730;2024-03-08T08:24:34;34.40;;;24.55;;
51981;SDS011;37998;53.416;6.730;2024-03-08T08:27:02;33.90;;;24.52;;
51981;SDS011;37998;53.416;6.730;2024-03-08T08:29:29;30.63;;;23.70;;
51981;SDS011;37998;53.416;6.730;2024-03-08T08:31:57;33.67;;;22.20;;
51981;SDS011;37998;53.416;6.730;2024-03-08T08:34:24;32.28;;;23.38;;
51981;SDS011;37998;53.416;6.730;2024-03-08T08:36:52;34.33;;;23.95;;
51981;SDS011;37998;53.416;6.730;2024-03-08T08:39:18;34.42;;;23.83;;
51981;SDS011;37998;53.416;6.730;2024-03-08T08:41:44;32.65;;;23.85;;
51981;SDS011;37998;53.416;6.730;2024-03-08T08:44:10;34.10;;;22.70;;
51981;SDS011;37998;53.416;6.730;2024-03-08T08:46:38;34.50;;;23.60;;
51981;SDS011;37998;53.416;6.730;2024-03-08T08:49:04;35.10;;;23.38;;
51981;SDS011;37998;53.416;6.730;2024-03-08T08:51:31;34.28;;;22.83;;
51981;SDS011;37998;53.416;6.730;2024-03-08T08:54:00;33.00;;;23.20;;
51981;SDS011;37998;53.416;6.730;2024-03-08T08:56:26;33.00;;;24.02;;
51981;SDS011;37998;53.416;6.730;2024-03-08T08:58:54;34.83;;;24.27;;
51981;SDS011;37998;53.416;6.730;2024-03-08T09:01:20;32.08;;;24.92;;
51981;SDS011;37998;53.416;6.730;2024-03-08T09:03:46;34.38;;;23.90;;
51981;SDS011;37998;53.416;6.730;2024-03-08T09:06:12;36.05;;;25.48;;
51981;SDS011;37998;53.416;6.730;2024-03-08T09:08:38;31.70;;;23.10;;
51981;SDS011;37998;53.416;6.730;2024-03-08T09:11:05;32.50;;;23.38;;
51981;SDS011;37998;53.416;6.730;2024-03-08T09:13:31;32.97;;;23.52;;
51981;SDS011;37998;53.416;6.730;2024-03-08T09:15:59;35.33;;;25.10;;
51981;SDS011;37998;53.416;6.730;2024-03-08T09:18:25;32.67;;;23.98;;
51981;SDS011;37998;53.416;6.730;2024-03-08T09:20:51;35.58;;;24.48;;
51981;SDS011;37998;53.416;6.730;2024-03-08T09:23:19;31.10;;;24.42;;
51981;SDS011;37998;53.416;6.730;2024-03-08T09:25:45;31.63;;;24.42;;
51981;SDS011;37998;53.416;6.730;2024-03-08T09:28:12;42.20;;;25.35;;
51981;SDS011;37998;53.416;6.730;2024-03-08T09:30:38;33.25;;;24.02;;
51981;SDS011;37998;53.416;6.730;2024-03-08T09:33:04;34.28;;;25.42;;
51981;SDS011;37998;53.416;6.730;2024-03-08T09:35:31;37.10;;;27.10;;
51981;SDS011;37998;53.416;6.730;2024-03-08T09:37:59;37.38;;;25.88;;
51981;SDS011;37998;53.416;6.730;2024-03-08T09:40:25;35.83;;;27.40;;
51981;SDS011;37998;53.416;6.730;2024-03-08T09:42:51;35.65;;;27.65;;
51981;SDS011;37998;53.416;6.730;2024-03-08T09:45:17;36.65;;;26.65;;
51981;SDS011;37998;53.416;6.730;2024-03-08T09:47:47;37.75;;;26.90;;
51981;SDS011;37998;53.416;6.730;2024-03-08T09:50:16;37.25;;;27.58;;
51981;SDS011;37998;53.416;6.730;2024-03-08T09:52:43;34.47;;;26.05;;
51981;SDS011;37998;53.416;6.730;2024-03-08T09:55:12;37.90;;;27.50;;
51981;SDS011;37998;53.416;6.730;2024-03-08T09:57:41;32.40;;;25.40;;
51981;SDS011;37998;53.416;6.730;2024-03-08T10:00:28;33.83;;;24.48;;
51981;SDS011;37998;53.416;6.730;2024-03-08T10:02:54;32.78;;;24.55;;
51981;SDS011;37998;53.416;6.730;2024-03-08T10:05:26;33.40;;;24.88;;
51981;SDS011;37998;53.416;6.730;2024-03-08T10:07:52;32.90;;;25.67;;
51981;SDS011;37998;53.416;6.730;2024-03-08T10:10:20;32.78;;;25.08;;
51981;SDS011;37998;53.416;6.730;2024-03-08T10:12:47;33.50;;;25.08;;
51981;SDS011;37998;53.416;6.730;2024-03-08T10:15:15;37.63;;;25.23;;
51981;SDS011;37998;53.416;6.730;2024-03-08T10:17:45;34.67;;;24.98;;
51981;SDS011;37998;53.416;6.730;2024-03-08T10:20:14;35.58;;;25.42;;
51981;SDS011;37998;53.416;6.730;2024-03-08T10:22:41;36.85;;;25.75;;
51981;SDS011;37998;53.416;6.730;2024-03-08T10:25:11;38.92;;;26.88;;
51981;SDS011;37998;53.416;6.730;2024-03-08T10:27:40;36.03;;;26.60;;
51981;SDS011;37998;53.416;6.730;2024-03-08T10:30:14;33.50;;;25.55;;
51981;SDS011;37998;53.416;6.730;2024-03-08T10:32:41;35.92;;;26.60;;
51981;SDS011;37998;53.416;6.730;2024-03-08T10:35:10;37.13;;;26.02;;
51981;SDS011;37998;53.416;6.730;2024-03-08T10:37:55;37.42;;;25.85;;
51981;SDS011;37998;53.416;6.730;2024-03-08T10:40:26;36.67;;;26.25;;
51981;SDS011;37998;53.416;6.730;2024-03-08T10:42:56;33.63;;;25.63;;
51981;SDS011;37998;53.416;6.730;2024-03-08T10:45:37;35.78;;;25.80;;
51981;SDS011;37998;53.416;6.730;2024-03-08T10:51:04;33.95;;;24.90;;
51981;SDS011;37998;53.416;6.730;2024-03-08T10:53:32;36.25;;;26.33;;
51981;SDS011;37998;53.416;6.730;2024-03-08T10:55:59;38.10;;;25.67;;
51981;SDS011;37998;53.416;6.730;2024-03-08T10:58:25;36.30;;;24.83;;
51981;SDS011;37998;53.416;6.730;2024-03-08T11:00:54;37.72;;;27.27;;
51981;SDS011;37998;53.416;6.730;2024-03-08T11:06:08;33.25;;;24.48;;
51981;SDS011;37998;53.416;6.730;2024-03-08T11:08:40;34.03;;;25.33;;
51981;SDS011;37998;53.416;6.730;2024-03-08T11:11:14;39.00;;;26.30;;
51981;SDS011;37998;53.416;6.730;2024-03-08T11:13:52;35.70;;;27.02;;
51981;SDS011;37998;53.416;6.730;2024-03-08T11:16:36;36.10;;;25.25;;
51981;SDS011;37998;53.416;6.730;2024-03-08T11:19:07;32.70;;;26.00;;
51981;SDS011;37998;53.416;6.730;2024-03-08T11:22:04;34.35;;;26.02;;
51981;SDS011;37998;53.416;6.730;2024-03-08T11:24:36;34.10;;;26.42;;
51981;SDS011;37998;53.416;6.730;2024-03-08T11:29:35;33.22;;;25.85;;
51981;SDS011;37998;53.416;6.730;2024-03-08T11:32:03;36.88;;;27.83;;
51981;SDS011;37998;53.416;6.730;2024-03-08T11:34:30;36.35;;;26.85;;
51981;SDS011;37998;53.416;6.730;2024-03-08T11:36:59;32.63;;;26.38;;
51981;SDS011;37998;53.416;6.730;2024-03-08T11:39:26;37.10;;;27.13;;
51981;SDS011;37998;53.416;6.730;2024-03-08T11:41:54;36.13;;;26.42;;
51981;SDS011;37998;53.416;6.730;2024-03-08T11:44:20;33.00;;;25.33;;
51981;SDS011;37998;53.416;6.730;2024-03-08T11:46:46;34.67;;;26.17;;
51981;SDS011;37998;53.416;6.730;2024-03-08T11:49:13;36.13;;;25.25;;
51981;SDS011;37998;53.416;6.730;2024-03-08T11:51:40;37.42;;;26.95;;
51981;SDS011;37998;53.416;6.730;2024-03-08T11:54:10;35.90;;;24.60;;
51981;SDS011;37998;53.416;6.730;2024-03-08T11:56:40;31.60;;;23.60;;
51981;SDS011;37998;53.416;6.730;2024-03-08T11:59:12;33.70;;;25.73;;
51981;SDS011;37998;53.416;6.730;2024-03-08T12:01:40;35.25;;;24.90;;
51981;SDS011;37998;53.416;6.730;2024-03-08T12:04:06;31.75;;;25.05;;
51981;SDS011;37998;53.416;6.730;2024-03-08T12:06:40;30.77;;;24.25;;
51981;SDS011;37998;53.416;6.730;2024-03-08T12:09:12;31.05;;;23.52;;
51981;SDS011;37998;53.416;6.730;2024-03-08T12:11:40;29.98;;;23.75;;
51981;SDS011;37998;53.416;6.730;2024-03-08T12:14:06;30.85;;;23.70;;
51981;SDS011;37998;53.416;6.730;2024-03-08T12:16:32;32.78;;;23.23;;
51981;SDS011;37998;53.416;6.730;2024-03-08T12:18:59;31.55;;;23.10;;
51981;SDS011;37998;53.416;6.730;2024-03-08T12:21:25;33.83;;;23.90;;
51981;SDS011;37998;53.416;6.730;2024-03-08T12:24:04;30.50;;;23.92;;
51981;SDS011;37998;53.416;6.730;2024-03-08T12:26:35;28.13;;;22.52;;
51981;SDS011;37998;53.416;6.730;2024-03-08T12:29:21;28.10;;;22.20;;
51981;SDS011;37998;53.416;6.730;2024-03-08T12:31:53;26.10;;;21.60;;
51981;SDS011;37998;53.416;6.730;2024-03-08T12:34:26;28.88;;;22.77;;
51981;SDS011;37998;53.416;6.730;2024-03-08T12:36:54;30.63;;;23.55;;
51981;SDS011;37998;53.416;6.730;2024-03-08T12:39:20;29.95;;;22.73;;
51981;SDS011;37998;53.416;6.730;2024-03-08T12:41:48;30.90;;;22.20;;
51981;SDS011;37998;53.416;6.730;2024-03-08T12:44:17;26.15;;;21.00;;
51981;SDS011;37998;53.416;6.730;2024-03-08T12:46:46;30.92;;;22.50;;
51981;SDS011;37998;53.416;6.730;2024-03-08T12:49:13;28.08;;;22.27;;
51981;SDS011;37998;53.416;6.730;2024-03-08T12:51:46;27.55;;;21.52;;
51981;SDS011;37998;53.416;6.730;2024-03-08T12:54:12;28.83;;;22.48;;
51981;SDS011;37998;53.416;6.730;2024-03-08T12:56:38;30.13;;;22.55;;
51981;SDS011;37998;53.416;6.730;2024-03-08T12:59:05;28.45;;;22.00;;
51981;SDS011;37998;53.416;6.730;2024-03-08T13:01:33;30.60;;;21.20;;
51981;SDS011;37998;53.416;6.730;2024-03-08T13:04:02;31.80;;;22.45;;
51981;SDS011;37998;53.416;6.730;2024-03-08T13:06:29;26.95;;;21.58;;
51981;SDS011;37998;53.416;6.730;2024-03-08T13:08:56;33.90;;;22.85;;
51981;SDS011;37998;53.416;6.730;2024-03-08T13:11:24;28.67;;;22.33;;
51981;SDS011;37998;53.416;6.730;2024-03-08T13:13:52;33.00;;;22.42;;
51981;SDS011;37998;53.416;6.730;2024-03-08T13:16:18;29.75;;;23.02;;
51981;SDS011;37998;53.416;6.730;2024-03-08T13:18:45;30.00;;;22.13;;
51981;SDS011;37998;53.416;6.730;2024-03-08T13:21:14;31.80;;;21.58;;
51981;SDS011;37998;53.416;6.730;2024-03-08T13:23:45;33.28;;;21.58;;
51981;SDS011;37998;53.416;6.730;2024-03-08T13:26:14;28.92;;;22.85;;
51981;SDS011;37998;53.416;6.730;2024-03-08T13:28:50;27.33;;;21.58;;
51981;SDS011;37998;53.416;6.730;2024-03-08T13:31:22;26.23;;;21.83;;
51981;SDS011;37998;53.416;6.730;2024-03-08T13:33:48;29.30;;;23.20;;
51981;SDS011;37998;53.416;6.730;2024-03-08T13:36:16;28.60;;;22.65;;
51981;SDS011;37998;53.416;6.730;2024-03-08T13:38:49;26.70;;;20.83;;
51981;SDS011;37998;53.416;6.730;2024-03-08T13:41:15;30.00;;;23.17;;
51981;SDS011;37998;53.416;6.730;2024-03-08T13:43:42;31.17;;;23.52;;
51981;SDS011;37998;53.416;6.730;2024-03-08T13:46:12;28.33;;;22.38;;
51981;SDS011;37998;53.416;6.730;2024-03-08T13:48:38;32.65;;;23.42;;
51981;SDS011;37998;53.416;6.730;2024-03-08T13:51:07;28.85;;;21.83;;
51981;SDS011;37998;53.416;6.730;2024-03-08T13:53:37;28.23;;;22.25;;
51981;SDS011;37998;53.416;6.730;2024-03-08T13:56:05;30.35;;;23.25;;
51981;SDS011;37998;53.416;6.730;2024-03-08T13:58:32;27.75;;;22.88;;
51981;SDS011;37998;53.416;6.730;2024-03-08T14:00:57;29.90;;;22.67;;
51981;SDS011;37998;53.416;6.730;2024-03-08T14:03:24;28.73;;;22.10;;
51981;SDS011;37998;53.416;6.730;2024-03-08T14:05:50;28.95;;;22.02;;
51981;SDS011;37998;53.416;6.730;2024-03-08T14:08:16;28.33;;;22.45;;
51981;SDS011;37998;53.416;6.730;2024-03-08T14:10:42;30.98;;;23.42;;
51981;SDS011;37998;53.416;6.730;2024-03-08T14:13:12;31.27;;;23.15;;
51981;SDS011;37998;53.416;6.730;2024-03-08T14:15:40;30.73;;;22.33;;
51981;SDS011;37998;53.416;6.730;2024-03-08T14:18:07;32.72;;;23.00;;
51981;SDS011;37998;53.416;6.730;2024-03-08T14:20:36;30.05;;;23.35;;
51981;SDS011;37998;53.416;6.730;2024-03-08T14:23:02;33.20;;;24.45;;
51981;SDS011;37998;53.416;6.730;2024-03-08T14:25:31;29.25;;;21.85;;
51981;SDS011;37998;53.416;6.730;2024-03-08T14:28:01;27.15;;;22.10;;
51981;SDS011;37998;53.416;6.730;2024-03-08T14:30:29;31.48;;;24.38;;
51981;SDS011;37998;53.416;6.730;2024-03-08T14:32:58;31.90;;;23.85;;
51981;SDS011;37998;53.416;6.730;2024-03-08T14:35:27;30.95;;;24.23;;